Mc Kittrick, California
Current Conditions -  °F | °C
As of 1:54 AM on Saturday 29 Nov 2014 (Local Time) from KBFL Reporting Station
Clear Clear  
Wind Chill: 50°   Ceiling: Unl
Heat Index: 50°   Visibility: 10mi
Dew Point: 28°   Wind: 5mph
Humidity: 43%   Direction: 330°NNW
Pressure: 29.86"   Gusts: NA
Location:  35.4014°N, 119.705°W
Report Text: KBFL 290954Z AUTO 33004KT 10SM CLR 10/M02 A2986 RMK AO2 SLP109 T01001022
Loading
Personal Weather Stations






























Interactive Weather Map New forecast layout! Learn more

10-Day Weather Forecast

Advertisements
Track Severe Weather on mobile